DFOXX EDXW-EDXH
Flight info
| Callsign | DFOXX |
|---|---|
| Flight time | 0h 21m |
| Altitude | 10000 |
| Route | OLDIP1A OLDIP |
| Aircraft | B58T/L-SDFGRY/C |
Departure
| Time | 2026-04-12 09:17 |
|---|---|
| Airport | Westerland Sylt Airport (EDXW) |
Arrival
| Time | 2026-04-12 09:38 |
|---|---|
| Airport | Helgoland-Düne Airport (EDXH) |
| Time | Latitude | Longitude | Altitude | Speed | Heading |
|---|---|---|---|---|---|
| 2026-04-12 08:46 | 54.91251 | 8.32516 | 19 ft | 0 kts | 243° |
| 2026-04-12 09:12 | 54.91215 | 8.32548 | 20 ft | 0 kts | 243° |
| 2026-04-12 09:12 | 54.91207 | 8.32543 | 19 ft | 5 kts | 160° |
| 2026-04-12 09:13 | 54.91169 | 8.32655 | 19 ft | 16 kts | 121° |
| 2026-04-12 09:13 | 54.91088 | 8.32851 | 23 ft | 21 kts | 133° |
| 2026-04-12 09:13 | 54.91016 | 8.33030 | 21 ft | 19 kts | 91° |
| 2026-04-12 09:13 | 54.91083 | 8.33175 | 18 ft | 18 kts | 6° |
| 2026-04-12 09:14 | 54.91211 | 8.33177 | 23 ft | 19 kts | 359° |
| 2026-04-12 09:14 | 54.91338 | 8.33244 | 22 ft | 17 kts | 12° |
| 2026-04-12 09:14 | 54.91458 | 8.33193 | 22 ft | 19 kts | 337° |
| 2026-04-12 09:14 | 54.91594 | 8.33174 | 28 ft | 19 kts | 359° |
| 2026-04-12 09:15 | 54.91736 | 8.33172 | 32 ft | 20 kts | 1° |
| 2026-04-12 09:15 | 54.91868 | 8.33230 | 32 ft | 22 kts | 22° |
| 2026-04-12 09:15 | 54.91878 | 8.33365 | 32 ft | 0 kts | 143° |
| 2026-04-12 09:15 | 54.91867 | 8.33379 | 32 ft | 15 kts | 145° |
| 2026-04-12 09:16 | 54.91516 | 8.33810 | 38 ft | 100 kts | 145° |
| 2026-04-12 09:16 | 54.90842 | 8.34647 | 161 ft | 133 kts | 151° |
| 2026-04-12 09:16 | 54.90005 | 8.35569 | 406 ft | 147 kts | 165° |
| 2026-04-12 09:16 | 54.88967 | 8.35913 | 637 ft | 154 kts | 174° |
| 2026-04-12 09:17 | 54.88006 | 8.36583 | 1016 ft | 155 kts | 145° |
| 2026-04-12 09:17 | 54.87297 | 8.38061 | 1163 ft | 162 kts | 130° |
| 2026-04-12 09:17 | 54.86629 | 8.39692 | 1173 ft | 170 kts | 131° |
| 2026-04-12 09:17 | 54.85942 | 8.41369 | 1212 ft | 170 kts | 130° |
| 2026-04-12 09:18 | 54.85247 | 8.43004 | 1358 ft | 166 kts | 131° |
| 2026-04-12 09:18 | 54.84572 | 8.44594 | 1583 ft | 162 kts | 131° |
| 2026-04-12 09:18 | 54.83761 | 8.45792 | 1809 ft | 148 kts | 169° |
| 2026-04-12 09:18 | 54.82817 | 8.45509 | 2007 ft | 142 kts | 218° |
| 2026-04-12 09:19 | 54.82109 | 8.44233 | 2020 ft | 152 kts | 224° |
| 2026-04-12 09:19 | 54.81204 | 8.43208 | 2020 ft | 158 kts | 209° |
| 2026-04-12 09:19 | 54.80224 | 8.42362 | 2020 ft | 156 kts | 208° |
| 2026-04-12 09:20 | 54.78289 | 8.40741 | 2016 ft | 153 kts | 207° |
| 2026-04-12 09:20 | 54.77329 | 8.39939 | 2015 ft | 153 kts | 207° |
| 2026-04-12 09:20 | 54.75428 | 8.38351 | 2017 ft | 152 kts | 207° |
| 2026-04-12 09:21 | 54.74475 | 8.37555 | 2017 ft | 152 kts | 207° |
| 2026-04-12 09:21 | 54.73521 | 8.36761 | 2017 ft | 153 kts | 207° |
| 2026-04-12 09:21 | 54.72559 | 8.35959 | 2017 ft | 153 kts | 207° |
| 2026-04-12 09:21 | 54.71601 | 8.35159 | 2014 ft | 153 kts | 207° |
| 2026-04-12 09:22 | 54.70638 | 8.34358 | 2014 ft | 154 kts | 207° |
| 2026-04-12 09:22 | 54.69671 | 8.33546 | 2022 ft | 156 kts | 209° |
| 2026-04-12 09:22 | 54.68691 | 8.32711 | 2015 ft | 156 kts | 206° |
| 2026-04-12 09:22 | 54.67703 | 8.31937 | 2010 ft | 157 kts | 206° |
| 2026-04-12 09:23 | 54.66730 | 8.31121 | 1982 ft | 154 kts | 208° |
| 2026-04-12 09:23 | 54.65788 | 8.30321 | 2158 ft | 147 kts | 207° |
| 2026-04-12 09:23 | 54.64886 | 8.29577 | 2352 ft | 140 kts | 206° |
| 2026-04-12 09:23 | 54.64022 | 8.28863 | 2552 ft | 135 kts | 207° |
| 2026-04-12 09:24 | 54.63182 | 8.28166 | 2745 ft | 133 kts | 206° |
| 2026-04-12 09:24 | 54.62347 | 8.27474 | 2944 ft | 133 kts | 206° |
| 2026-04-12 09:24 | 54.61490 | 8.26763 | 3007 ft | 141 kts | 207° |
| 2026-04-12 09:24 | 54.60895 | 8.26268 | 3012 ft | 146 kts | 206° |
| 2026-04-12 09:25 | 54.59964 | 8.25498 | 3020 ft | 151 kts | 206° |
| 2026-04-12 09:25 | 54.58692 | 8.24445 | 3020 ft | 155 kts | 206° |
| 2026-04-12 09:25 | 54.57718 | 8.23640 | 3019 ft | 155 kts | 206° |
| 2026-04-12 09:25 | 54.56744 | 8.22835 | 3022 ft | 155 kts | 206° |
| 2026-04-12 09:26 | 54.56087 | 8.22293 | 3026 ft | 155 kts | 206° |
| 2026-04-12 09:26 | 54.55113 | 8.21489 | 3026 ft | 155 kts | 207° |
| 2026-04-12 09:26 | 54.54152 | 8.20696 | 3024 ft | 155 kts | 206° |
| 2026-04-12 09:26 | 54.53178 | 8.19893 | 3024 ft | 155 kts | 206° |
| 2026-04-12 09:27 | 54.52205 | 8.19091 | 3023 ft | 155 kts | 206° |
| 2026-04-12 09:27 | 54.51231 | 8.18288 | 3024 ft | 155 kts | 206° |
| 2026-04-12 09:27 | 54.50247 | 8.17478 | 3025 ft | 155 kts | 207° |
| 2026-04-12 09:27 | 54.49274 | 8.16677 | 3024 ft | 155 kts | 206° |
| 2026-04-12 09:28 | 54.48300 | 8.15875 | 3024 ft | 155 kts | 206° |
| 2026-04-12 09:28 | 54.47337 | 8.15085 | 3020 ft | 155 kts | 206° |
| 2026-04-12 09:28 | 54.46362 | 8.14284 | 3019 ft | 156 kts | 207° |
| 2026-04-12 09:28 | 54.45383 | 8.13479 | 3019 ft | 156 kts | 206° |
| 2026-04-12 09:29 | 54.44394 | 8.12667 | 3017 ft | 155 kts | 206° |
| 2026-04-12 09:29 | 54.43420 | 8.11868 | 3018 ft | 155 kts | 206° |
| 2026-04-12 09:29 | 54.42459 | 8.11081 | 3018 ft | 156 kts | 206° |
| 2026-04-12 09:29 | 54.41482 | 8.10280 | 3017 ft | 155 kts | 206° |
| 2026-04-12 09:30 | 54.40509 | 8.09483 | 3020 ft | 155 kts | 206° |
| 2026-04-12 09:30 | 54.39536 | 8.08686 | 3020 ft | 155 kts | 206° |
| 2026-04-12 09:30 | 54.38561 | 8.07890 | 3019 ft | 155 kts | 206° |
| 2026-04-12 09:30 | 54.37586 | 8.07091 | 3023 ft | 155 kts | 206° |
| 2026-04-12 09:31 | 54.36612 | 8.06295 | 3023 ft | 155 kts | 206° |
| 2026-04-12 09:31 | 54.35636 | 8.05498 | 3021 ft | 155 kts | 206° |
| 2026-04-12 09:31 | 54.34663 | 8.04703 | 3021 ft | 155 kts | 206° |
| 2026-04-12 09:31 | 54.33689 | 8.03909 | 3022 ft | 155 kts | 206° |
| 2026-04-12 09:32 | 54.32715 | 8.03114 | 3020 ft | 155 kts | 206° |
| 2026-04-12 09:32 | 54.31739 | 8.02319 | 3020 ft | 155 kts | 206° |
| 2026-04-12 09:32 | 54.30768 | 8.01528 | 3021 ft | 155 kts | 206° |
| 2026-04-12 09:32 | 54.29796 | 8.00736 | 3020 ft | 155 kts | 206° |
| 2026-04-12 09:33 | 54.28824 | 7.99945 | 3021 ft | 155 kts | 206° |
| 2026-04-12 09:33 | 54.27847 | 7.99151 | 3034 ft | 155 kts | 206° |
| 2026-04-12 09:33 | 54.26869 | 7.98354 | 2818 ft | 155 kts | 206° |
| 2026-04-12 09:33 | 54.25926 | 7.97587 | 2505 ft | 150 kts | 206° |
| 2026-04-12 09:34 | 54.24996 | 7.96833 | 2184 ft | 146 kts | 207° |
| 2026-04-12 09:34 | 54.24084 | 7.96094 | 1872 ft | 144 kts | 207° |
| 2026-04-12 09:34 | 54.23221 | 7.95393 | 1812 ft | 130 kts | 207° |
| 2026-04-12 09:34 | 54.22407 | 7.94747 | 1688 ft | 132 kts | 207° |
| 2026-04-12 09:35 | 54.21572 | 7.94083 | 1400 ft | 133 kts | 207° |
| 2026-04-12 09:35 | 54.20740 | 7.93366 | 1061 ft | 135 kts | 210° |
| 2026-04-12 09:35 | 54.19855 | 7.92599 | 483 ft | 149 kts | 205° |
| 2026-04-12 09:35 | 54.18911 | 7.91874 | 118 ft | 146 kts | 205° |
| 2026-04-12 09:36 | 54.18203 | 7.90867 | 200 ft | 130 kts | 245° |
| 2026-04-12 09:36 | 54.18347 | 7.89401 | 323 ft | 134 kts | 304° |
| 2026-04-12 09:36 | 54.19193 | 7.88776 | 437 ft | 143 kts | 1° |
| 2026-04-12 09:36 | 54.20079 | 7.89499 | 399 ft | 146 kts | 47° |
| 2026-04-12 09:37 | 54.20767 | 7.90822 | 319 ft | 150 kts | 52° |
| 2026-04-12 09:37 | 54.21155 | 7.92267 | 346 ft | 126 kts | 101° |
| 2026-04-12 09:37 | 54.20708 | 7.93387 | 326 ft | 108 kts | 164° |
| 2026-04-12 09:37 | 54.20080 | 7.93068 | 244 ft | 94 kts | 221° |
| 2026-04-12 09:38 | 54.19598 | 7.92367 | 156 ft | 91 kts | 207° |
| 2026-04-12 09:38 | 54.19030 | 7.91910 | 74 ft | 87 kts | 205° |
| 2026-04-12 09:38 | 54.18556 | 7.91509 | 9 ft | 42 kts | 205° |
| 2026-04-12 09:38 | 54.18509 | 7.91444 | 11 ft | 7 kts | 324° |
| 2026-04-12 09:39 | 54.18572 | 7.91380 | 7 ft | 13 kts | 346° |
| 2026-04-12 09:39 | 54.18644 | 7.91418 | 6 ft | 8 kts | 5° |
| 2026-04-12 09:39 | 54.18656 | 7.91412 | 6 ft | 0 kts | 327° |